Terminal Aerodrome Forecast
Issued by NWS

Home | Current Version | Previous Version | Text Only | Print | Product List | Glossary On
Versions: 1 2 3 4 5 6 7 8 9 10 11 12
000
FTUS46 KLOX 311100
TAFBUR
TAF
KBUR 311125Z 3112/0112 VRB03KT P6SM SKC
     FM312100 17008KT P6SM SKC
     FM010300 12006KT P6SM SKC
     FM010700 VRB03KT P6SM SKC=

USA.gov is the U.S. government's official web portal to all federal, state and local government web resources and services.